createdAt,value
2018-09-28T00:00:47.558Z,9.84
2018-09-28T00:01:51.994Z,9.86
2018-09-28T00:02:56.449Z,9.75
2018-09-28T00:04:00.953Z,9.73
2018-09-28T00:05:05.574Z,9.74
2018-09-28T00:06:10.592Z,9.74
2018-09-28T00:07:15.071Z,9.70
2018-09-28T00:08:20.269Z,9.69
2018-09-28T00:09:25.648Z,9.62
2018-09-28T00:10:31.375Z,9.54
2018-09-28T00:11:35.851Z,9.50
2018-09-28T00:12:40.619Z,9.46
2018-09-28T00:13:45.070Z,9.45
2018-09-28T00:14:49.545Z,9.44
2018-09-28T00:15:54.307Z,9.41
2018-09-28T00:16:58.798Z,9.43
2018-09-28T00:18:03.291Z,9.40
2018-09-28T00:19:07.736Z,9.24
2018-09-28T00:20:12.195Z,9.21
2018-09-28T00:21:16.628Z,9.23
2018-09-28T00:22:23.005Z,9.31
2018-09-28T00:23:27.531Z,9.38
2018-09-28T00:24:32.336Z,9.45
2018-09-28T00:25:38.466Z,9.48
2018-09-28T00:26:42.940Z,9.54
2018-09-28T00:27:48.672Z,9.37
2018-09-28T00:28:53.773Z,9.15
2018-09-28T00:29:58.225Z,9.05
2018-09-28T00:31:03.845Z,9.08
2018-09-28T00:32:08.413Z,9.14
2018-09-28T00:33:13.024Z,9.13
2018-09-28T00:34:17.561Z,9.15
2018-09-28T00:35:22.063Z,9.16
2018-09-28T00:36:26.538Z,9.21
2018-09-28T00:37:31.453Z,9.27
2018-09-28T00:38:35.923Z,9.24
2018-09-28T00:39:40.384Z,9.28
2018-09-28T00:40:44.879Z,9.28
2018-09-28T00:41:49.344Z,9.29
2018-09-28T00:42:53.868Z,9.26
2018-09-28T00:43:59.628Z,9.26
2018-09-28T00:45:04.099Z,9.21
2018-09-28T00:46:08.574Z,9.21
2018-09-28T00:47:13.027Z,9.22
2018-09-28T00:48:17.618Z,9.15
2018-09-28T00:49:22.110Z,9.13
2018-09-28T00:50:27.003Z,9.09
2018-09-28T00:51:31.461Z,9.08
2018-09-28T00:52:36.156Z,9.11
2018-09-28T00:53:40.977Z,9.08
2018-09-28T00:54:45.435Z,8.80
2018-09-28T00:55:49.877Z,8.74
2018-09-28T00:56:54.644Z,8.77
2018-09-28T00:57:59.102Z,8.78
2018-09-28T00:59:03.533Z,8.68
2018-09-28T01:00:07.978Z,8.56
2018-09-28T01:01:12.769Z,8.58
2018-09-28T01:02:17.252Z,8.67
2018-09-28T01:03:22.006Z,8.76
2018-09-28T01:04:26.470Z,8.76
2018-09-28T01:05:30.921Z,8.78
2018-09-28T01:06:35.414Z,8.84
2018-09-28T01:07:39.927Z,8.79
2018-09-28T01:08:44.799Z,8.77
2018-09-28T01:09:49.918Z,8.81
2018-09-28T01:10:54.473Z,8.77
2018-09-28T01:11:59.096Z,8.80
2018-09-28T01:13:03.574Z,8.83
2018-09-28T01:14:08.054Z,8.84
2018-09-28T01:15:12.533Z,8.86
2018-09-28T01:16:17.707Z,8.81
2018-09-28T01:17:22.183Z,8.76
2018-09-28T01:18:26.618Z,8.70
2018-09-28T01:19:31.098Z,8.65
2018-09-28T01:20:35.717Z,8.49
2018-09-28T01:21:40.189Z,8.38
2018-09-28T01:22:44.914Z,8.41
2018-09-28T01:23:49.372Z,8.47
2018-09-28T01:24:53.900Z,8.49
2018-09-28T01:25:58.477Z,8.47
2018-09-28T01:27:03.096Z,8.49
2018-09-28T01:28:07.516Z,8.54
2018-09-28T01:29:12.285Z,8.53
2018-09-28T01:30:16.810Z,8.43
2018-09-28T01:31:21.327Z,8.36
2018-09-28T01:32:25.788Z,8.36
2018-09-28T01:33:30.312Z,8.41
2018-09-28T01:34:34.767Z,8.46
2018-09-28T01:35:39.499Z,8.51
2018-09-28T01:36:43.957Z,8.51
2018-09-28T01:37:48.426Z,8.50
2018-09-28T01:38:52.898Z,8.50
2018-09-28T01:39:57.377Z,8.47
2018-09-28T01:41:01.846Z,8.44
2018-09-28T01:42:06.604Z,8.44
2018-09-28T01:43:11.054Z,8.43
2018-09-28T01:44:15.530Z,8.43
2018-09-28T01:45:20.890Z,8.44
2018-09-28T01:46:25.373Z,8.47
2018-09-28T01:47:29.805Z,8.48
2018-09-28T01:48:34.555Z,8.47
2018-09-28T01:49:39.045Z,8.43
2018-09-28T01:50:43.502Z,8.34
2018-09-28T01:51:47.967Z,8.33
2018-09-28T01:52:52.588Z,8.32
2018-09-28T01:54:03.838Z,8.32
2018-09-28T01:55:08.746Z,8.35
2018-09-28T01:56:13.217Z,8.36
2018-09-28T01:57:17.682Z,8.31
2018-09-28T01:58:22.233Z,8.30
2018-09-28T01:59:26.683Z,8.26
2018-09-28T02:00:31.537Z,8.24
2018-09-28T02:01:36.352Z,8.20
2018-09-28T02:02:41.922Z,8.20
2018-09-28T02:03:46.391Z,8.22
2018-09-28T02:04:50.905Z,8.21
2018-09-28T02:05:55.388Z,8.18
2018-09-28T02:06:59.999Z,8.14
2018-09-28T02:08:04.733Z,8.07
2018-09-28T02:09:10.566Z,8.03
2018-09-28T02:10:15.059Z,8.02
2018-09-28T02:11:19.576Z,8.04
2018-09-28T02:12:24.058Z,8.09
2018-09-28T02:13:28.618Z,8.12
2018-09-28T02:14:33.436Z,8.12
2018-09-28T02:15:37.891Z,8.14
2018-09-28T02:16:42.378Z,8.16
2018-09-28T02:17:46.902Z,8.18
2018-09-28T02:18:51.355Z,8.19
2018-09-28T02:19:55.858Z,8.16
2018-09-28T02:21:00.680Z,8.15
2018-09-28T02:22:05.166Z,8.14
2018-09-28T02:23:09.591Z,8.12
2018-09-28T02:24:14.090Z,8.09
2018-09-28T02:25:18.587Z,8.06
2018-09-28T02:26:23.949Z,7.98
2018-09-28T02:27:28.710Z,7.94
2018-09-28T02:28:33.171Z,7.94
2018-09-28T02:29:37.722Z,7.88
2018-09-28T02:30:42.230Z,7.81
2018-09-28T02:31:46.798Z,7.78
2018-09-28T02:32:51.400Z,7.79
2018-09-28T02:33:56.675Z,7.83
2018-09-28T02:35:01.171Z,7.87
2018-09-28T02:36:05.636Z,7.87
2018-09-28T02:37:10.075Z,7.86
2018-09-28T02:38:14.580Z,7.80
2018-09-28T02:39:19.560Z,7.73
2018-09-28T02:40:24.510Z,7.70
2018-09-28T02:41:29.312Z,7.65
2018-09-28T02:42:35.409Z,7.66
2018-09-28T02:43:41.670Z,7.64
2018-09-28T02:44:46.118Z,7.66
2018-09-28T02:45:50.564Z,7.68
2018-09-28T02:46:55.341Z,7.70
2018-09-28T02:47:59.815Z,7.69
2018-09-28T02:49:04.269Z,7.68
2018-09-28T02:50:08.733Z,7.60
2018-09-28T02:51:13.218Z,7.50
2018-09-28T02:52:18.200Z,7.52
2018-09-28T02:53:23.046Z,7.54
2018-09-28T02:54:27.548Z,7.59
2018-09-28T02:55:32.002Z,7.52
2018-09-28T02:56:36.480Z,7.40
2018-09-28T02:57:41.001Z,7.32
2018-09-28T02:58:45.474Z,7.24
2018-09-28T02:59:50.236Z,7.24
2018-09-28T03:00:54.747Z,7.21
2018-09-28T03:01:59.291Z,7.20
2018-09-28T03:03:04.715Z,7.19
2018-09-28T03:04:10.074Z,7.16
2018-09-28T03:05:14.569Z,7.13
2018-09-28T03:06:22.079Z,7.15
2018-09-28T03:07:26.578Z,7.11
2018-09-28T03:08:31.130Z,7.04
2018-09-28T03:09:35.594Z,7.05
2018-09-28T03:10:40.299Z,7.03
2018-09-28T03:11:44.759Z,7.07
2018-09-28T03:12:49.568Z,7.14
2018-09-28T03:13:54.297Z,7.18
2018-09-28T03:14:58.799Z,7.16
2018-09-28T03:16:04.840Z,7.14
2018-09-28T03:17:09.306Z,7.12
2018-09-28T03:18:16.399Z,7.07
2018-09-28T03:19:21.789Z,7.13
2018-09-28T03:20:26.217Z,7.12
2018-09-28T03:21:32.392Z,7.13
2018-09-28T03:22:37.697Z,7.16
2018-09-28T03:23:42.158Z,7.17
2018-09-28T03:24:46.717Z,7.20
2018-09-28T03:25:51.707Z,7.24
2018-09-28T03:26:56.213Z,7.26
2018-09-28T03:28:00.786Z,7.27
2018-09-28T03:29:05.290Z,7.28
2018-09-28T03:30:09.746Z,7.26
2018-09-28T03:31:14.283Z,7.19
2018-09-28T03:32:19.170Z,7.15
2018-09-28T03:33:23.617Z,7.16
2018-09-28T03:34:30.820Z,7.14
2018-09-28T03:35:35.347Z,7.16
2018-09-28T03:36:39.783Z,7.21
2018-09-28T03:37:44.219Z,7.22
2018-09-28T03:38:49.131Z,7.07
2018-09-28T03:39:53.598Z,6.96
2018-09-28T03:40:58.085Z,6.87
2018-09-28T03:42:03.100Z,6.83
2018-09-28T03:43:08.047Z,6.86
2018-09-28T03:44:12.463Z,6.87
2018-09-28T03:45:17.425Z,6.84
2018-09-28T03:46:21.942Z,6.81
2018-09-28T03:47:26.526Z,6.81
2018-09-28T03:48:30.983Z,6.82
2018-09-28T03:49:35.438Z,6.84
2018-09-28T03:50:40.051Z,6.80
2018-09-28T03:51:44.891Z,6.70
2018-09-28T03:52:49.345Z,6.66
2018-09-28T03:53:54.618Z,6.71
2018-09-28T03:54:59.119Z,6.73
2018-09-28T03:56:03.654Z,6.79
2018-09-28T03:57:08.148Z,6.76
2018-09-28T03:58:12.979Z,6.71
2018-09-28T03:59:17.430Z,6.70
2018-09-28T04:00:21.933Z,6.65
2018-09-28T04:01:26.436Z,6.66
2018-09-28T04:02:32.028Z,6.67
2018-09-28T04:03:36.507Z,6.65
2018-09-28T04:04:40.958Z,6.66
2018-09-28T04:05:46.383Z,6.57
2018-09-28T04:06:51.481Z,6.48
2018-09-28T04:07:57.705Z,6.51
2018-09-28T04:09:02.248Z,6.51
2018-09-28T04:10:07.701Z,6.52
2018-09-28T04:11:12.208Z,6.54
2018-09-28T04:12:16.659Z,6.49
2018-09-28T04:13:21.997Z,6.40
2018-09-28T04:14:26.515Z,6.39
2018-09-28T04:15:31.018Z,6.37
2018-09-28T04:16:35.999Z,6.38
2018-09-28T04:17:40.526Z,6.42
2018-09-28T04:18:44.993Z,6.40
2018-09-28T04:19:49.475Z,6.43
2018-09-28T04:20:53.970Z,6.42
2018-09-28T04:22:00.587Z,6.45
2018-09-28T04:23:05.445Z,6.48
2018-09-28T04:24:09.981Z,6.49
2018-09-28T04:25:14.538Z,6.50
2018-09-28T04:26:19.010Z,6.45
2018-09-28T04:27:23.994Z,6.41
2018-09-28T04:28:28.434Z,6.44
2018-09-28T04:29:33.178Z,6.43
2018-09-28T04:30:39.118Z,6.40
2018-09-28T04:31:43.642Z,6.40
2018-09-28T04:32:48.162Z,6.40
2018-09-28T04:33:52.717Z,6.38
2018-09-28T04:34:57.355Z,6.34
2018-09-28T04:36:02.162Z,6.30
2018-09-28T04:37:06.851Z,6.31
2018-09-28T04:38:11.311Z,6.22
2018-09-28T04:39:15.770Z,6.17
2018-09-28T04:40:20.236Z,6.08
2018-09-28T04:41:24.708Z,5.99
2018-09-28T04:42:29.965Z,5.94
2018-09-28T04:43:34.483Z,5.95
2018-09-28T04:44:39.001Z,5.99
2018-09-28T04:45:44.778Z,6.02
2018-09-28T04:46:49.231Z,6.06
2018-09-28T04:47:55.211Z,5.90
2018-09-28T04:48:59.658Z,5.82
2018-09-28T04:50:04.148Z,5.79
2018-09-28T04:51:08.673Z,5.64
2018-09-28T04:52:13.124Z,5.41
2018-09-28T04:53:17.602Z,5.26
2018-09-28T04:54:23.399Z,5.24
2018-09-28T04:55:27.850Z,5.18
2018-09-28T04:56:32.446Z,5.08
2018-09-28T04:57:36.937Z,5.04
2018-09-28T04:58:41.406Z,4.99
2018-09-28T04:59:45.936Z,5.05
2018-09-28T05:00:50.401Z,5.13
2018-09-28T05:01:55.412Z,5.22
2018-09-28T05:02:59.916Z,5.33
2018-09-28T05:04:07.317Z,5.44
2018-09-28T05:05:12.357Z,5.54
2018-09-28T05:06:17.343Z,5.61
2018-09-28T05:07:22.640Z,5.67
2018-09-28T05:08:28.673Z,5.71
2018-09-28T05:09:33.108Z,5.73
2018-09-28T05:10:37.611Z,5.72
2018-09-28T05:11:42.099Z,5.71
2018-09-28T05:12:46.591Z,5.72
2018-09-28T05:13:51.667Z,5.75
2018-09-28T05:14:56.338Z,5.78
2018-09-28T05:16:00.818Z,5.69
2018-09-28T05:17:05.329Z,5.69
2018-09-28T05:18:10.213Z,5.70
2018-09-28T05:19:14.691Z,5.57
2018-09-28T05:20:19.247Z,5.40
2018-09-28T05:21:23.709Z,5.38
2018-09-28T05:22:28.245Z,5.40
2018-09-28T05:23:32.793Z,5.41
2018-09-28T05:24:37.700Z,5.45
2018-09-28T05:25:42.187Z,5.50
2018-09-28T05:26:46.700Z,5.57
2018-09-28T05:27:51.276Z,5.59
2018-09-28T05:28:56.022Z,5.59
2018-09-28T05:30:00.621Z,5.52
2018-09-28T05:31:06.674Z,5.42
2018-09-28T05:45:55.262Z,5.91
2018-09-28T05:47:01.479Z,5.97
2018-09-28T05:48:07.047Z,6.09
2018-09-28T05:49:11.970Z,6.22
2018-09-28T05:50:17.270Z,6.33
2018-09-28T05:51:22.611Z,6.41
2018-09-28T05:52:27.596Z,6.47
2018-09-28T05:53:32.234Z,6.58
2018-09-28T05:54:37.070Z,6.71
2018-09-28T05:55:41.993Z,6.72
2018-09-28T05:56:47.053Z,6.81
2018-09-28T05:57:53.369Z,6.97
2018-09-28T05:59:03.252Z,7.12
2018-09-28T06:00:13.640Z,7.07
2018-09-28T06:01:23.558Z,7.14
2018-09-28T06:02:37.054Z,7.20
2018-09-28T06:03:47.149Z,7.37
2018-09-28T06:04:56.781Z,7.43
2018-09-28T06:06:03.618Z,7.58
2018-09-28T06:07:08.652Z,7.35
2018-09-28T06:08:13.946Z,7.26
2018-09-28T06:09:19.130Z,7.30
2018-09-28T06:10:25.015Z,7.21
2018-09-28T06:11:37.576Z,7.22
2018-09-28T06:12:42.640Z,6.99
2018-09-28T06:13:49.602Z,7.09
2018-09-28T06:14:54.733Z,7.09
2018-09-28T06:16:01.981Z,7.16
2018-09-28T06:17:07.203Z,7.28
2018-09-28T06:18:11.726Z,7.21
2018-09-28T06:19:17.289Z,6.79
2018-09-28T06:20:22.089Z,7.02
2018-09-28T06:21:26.607Z,7.18
2018-09-28T06:22:31.298Z,6.97
2018-09-28T06:23:36.116Z,6.77
2018-09-28T06:24:41.233Z,6.76
2018-09-28T06:25:45.963Z,6.83
2018-09-28T06:26:51.841Z,6.89
2018-09-28T06:27:56.343Z,7.02
2018-09-28T06:29:00.879Z,7.09
2018-09-28T06:30:06.688Z,7.32
2018-09-28T06:31:11.159Z,7.59
2018-09-28T06:32:15.631Z,7.73
2018-09-28T06:33:20.188Z,8.09
2018-09-28T06:34:25.748Z,7.96
2018-09-28T06:35:30.386Z,8.21
2018-09-28T06:36:37.156Z,8.61
2018-09-28T06:37:41.622Z,8.87
2018-09-28T06:38:46.065Z,8.80
2018-09-28T06:39:50.574Z,8.68
2018-09-28T06:40:57.134Z,8.57
2018-09-28T06:42:03.252Z,8.31
2018-09-28T06:43:08.088Z,8.17
2018-09-28T06:44:15.367Z,7.92
2018-09-28T06:45:19.802Z,7.74
2018-09-28T06:46:24.560Z,7.60
2018-09-28T06:47:29.818Z,7.53
2018-09-28T06:48:34.838Z,7.67
2018-09-28T06:49:41.266Z,7.89
2018-09-28T06:50:45.717Z,8.03
2018-09-28T06:51:51.090Z,8.23
2018-09-28T06:52:56.198Z,8.19
2018-09-28T06:54:01.326Z,8.29
2018-09-28T06:55:08.652Z,8.39
2018-09-28T06:56:13.099Z,8.53
2018-09-28T06:57:18.220Z,8.62
2018-09-28T06:58:23.269Z,8.57
2018-09-28T06:59:27.771Z,8.36
2018-09-28T07:00:32.274Z,8.29
2018-09-28T07:01:38.490Z,8.18
2018-09-28T07:02:43.646Z,7.95
2018-09-28T07:03:48.160Z,7.94
2018-09-28T07:04:52.809Z,8.01
2018-09-28T07:05:57.312Z,8.02
2018-09-28T07:07:01.821Z,8.05
2018-09-28T07:08:07.622Z,7.98
2018-09-28T07:09:13.226Z,7.89
2018-09-28T07:10:17.911Z,7.91
2018-09-28T07:11:22.531Z,7.94
2018-09-28T07:12:27.001Z,8.01
2018-09-28T07:13:31.589Z,8.15
2018-09-28T07:14:37.556Z,8.27
2018-09-28T07:15:42.241Z,8.32
2018-09-28T07:16:46.819Z,8.23
2018-09-28T07:17:52.143Z,8.12
2018-09-28T07:18:56.799Z,8.01
2018-09-28T07:20:01.464Z,7.90
2018-09-28T07:21:06.374Z,7.83
2018-09-28T07:22:10.854Z,7.86
2018-09-28T07:23:15.345Z,7.90
2018-09-28T07:24:27.501Z,7.91
2018-09-28T07:25:32.699Z,7.92
2018-09-28T07:26:37.146Z,7.90
2018-09-28T07:27:42.421Z,7.79
2018-09-28T07:28:47.564Z,7.80
2018-09-28T07:29:55.492Z,7.90
2018-09-28T07:31:00.131Z,8.01
2018-09-28T07:32:05.267Z,8.08
2018-09-28T07:33:10.758Z,8.12
2018-09-28T07:34:16.687Z,8.26
2018-09-28T07:35:22.091Z,8.41
2018-09-28T07:36:26.611Z,8.52
2018-09-28T07:37:31.291Z,8.38
2018-09-28T07:38:35.857Z,8.25
2018-09-28T07:39:44.283Z,8.28
2018-09-28T07:40:52.786Z,8.37
2018-09-28T07:41:57.377Z,8.39
2018-09-28T07:43:01.934Z,8.31
2018-09-28T07:44:09.095Z,8.33
2018-09-28T07:45:13.565Z,8.36
2018-09-28T07:46:18.412Z,8.43
2018-09-28T07:47:23.246Z,8.45
2018-09-28T07:48:27.756Z,8.53
2018-09-28T07:49:33.643Z,8.58
2018-09-28T07:50:42.593Z,8.63
2018-09-28T07:51:49.688Z,8.64
2018-09-28T07:52:54.206Z,8.78
2018-09-28T07:53:59.334Z,8.90
2018-09-28T07:55:05.857Z,8.96
2018-09-28T07:56:10.385Z,8.95
2018-09-28T07:57:15.584Z,8.88
2018-09-28T07:58:20.470Z,8.84
2018-09-28T07:59:26.948Z,8.82
2018-09-28T08:00:35.131Z,8.73
2018-09-28T08:01:40.337Z,8.68
2018-09-28T08:02:45.441Z,8.62
2018-09-28T08:03:50.142Z,8.60
2018-09-28T08:04:55.870Z,8.54
2018-09-28T08:06:01.336Z,8.48
2018-09-28T08:07:07.312Z,8.49
2018-09-28T08:08:12.489Z,8.54
2018-09-28T08:09:16.978Z,8.56
2018-09-28T08:10:21.581Z,8.59
2018-09-28T08:11:29.603Z,8.70
2018-09-28T08:12:35.359Z,8.82
2018-09-28T08:13:41.724Z,8.90
2018-09-28T08:14:46.553Z,9.02
2018-09-28T08:15:51.738Z,9.01
2018-09-28T08:16:56.762Z,9.04
2018-09-28T08:18:02.472Z,8.88
2018-09-28T08:19:08.621Z,8.74
2018-09-28T08:20:14.308Z,8.78
2018-09-28T08:21:19.582Z,8.78
2018-09-28T08:22:25.052Z,8.82
2018-09-28T08:23:30.899Z,8.90
2018-09-28T08:24:35.791Z,8.98
2018-09-28T08:25:42.375Z,9.01
2018-09-28T08:26:47.538Z,9.10
2018-09-28T08:27:52.690Z,9.15
2018-09-28T08:28:57.330Z,9.17
2018-09-28T08:30:02.016Z,9.19
2018-09-28T08:31:08.549Z,9.23
2018-09-28T08:32:12.990Z,9.20
2018-09-28T08:33:17.511Z,9.17
2018-09-28T08:34:22.044Z,9.22
2018-09-28T08:35:28.064Z,9.23
2018-09-28T08:36:32.658Z,9.23
2018-09-28T08:37:38.703Z,9.19
2018-09-28T08:38:43.792Z,9.22
2018-09-28T08:39:48.297Z,9.15
2018-09-28T08:40:55.760Z,9.10
2018-09-28T08:42:02.265Z,8.99
2018-09-28T08:43:08.291Z,9.05
2018-09-28T08:44:14.987Z,9.13
2018-09-28T08:45:21.329Z,9.31
2018-09-28T08:46:25.880Z,9.41
2018-09-28T08:47:32.462Z,9.47
2018-09-28T08:48:37.026Z,9.56
2018-09-28T08:49:43.544Z,9.63
2018-09-28T08:50:48.945Z,9.63
2018-09-28T08:51:53.421Z,9.59
2018-09-28T08:52:59.707Z,9.60
2018-09-28T08:54:06.310Z,9.61
2018-09-28T08:55:13.160Z,9.58
2018-09-28T08:56:19.287Z,9.56
2018-09-28T08:57:24.593Z,9.58
2018-09-28T08:58:29.310Z,9.66
2018-09-28T08:59:33.974Z,9.77
2018-09-28T09:00:42.462Z,9.85
2018-09-28T09:01:47.834Z,9.87
2018-09-28T09:02:52.414Z,9.94
2018-09-28T09:04:07.717Z,9.96
2018-09-28T09:05:15.683Z,9.98
2018-09-28T09:06:27.367Z,9.90
2018-09-28T09:09:16.299Z,9.86
2018-09-28T09:10:32.043Z,9.85
2018-09-28T09:11:37.286Z,9.76
2018-09-28T09:12:48.797Z,9.84
2018-09-28T09:15:06.655Z,9.97
2018-09-28T09:16:40.223Z,9.98
2018-09-28T09:17:48.341Z,9.99
2018-09-28T09:19:04.839Z,10.02
2018-09-28T09:20:13.175Z,9.97
2018-09-28T09:21:18.248Z,9.91
2018-09-28T09:22:22.862Z,9.90
2018-09-28T09:23:27.553Z,9.91
2018-09-28T09:24:33.095Z,9.89
2018-09-28T09:25:39.285Z,9.89
2018-09-28T09:26:44.645Z,9.97
2018-09-28T09:27:51.431Z,10.06
2018-09-28T09:28:56.066Z,10.16
2018-09-28T09:30:04.751Z,10.16
2018-09-28T09:31:10.785Z,10.19
2018-09-28T09:32:16.540Z,10.12
2018-09-28T09:33:21.173Z,10.17
2018-09-28T09:34:26.385Z,10.21
2018-09-28T09:35:32.364Z,10.30
2018-09-28T09:36:41.088Z,10.42
2018-09-28T09:37:48.775Z,10.55
2018-09-28T09:38:54.345Z,10.66
2018-09-28T09:40:10.833Z,10.74
2018-09-28T09:41:30.680Z,10.78
2018-09-28T09:42:35.935Z,10.78
2018-09-28T09:43:40.757Z,10.71
2018-09-28T09:44:48.056Z,10.62
2018-09-28T09:45:53.308Z,10.64
2018-09-28T09:46:58.752Z,10.69
2018-09-28T09:48:03.578Z,10.77
2018-09-28T09:49:09.789Z,10.85
2018-09-28T09:50:14.607Z,10.95
2018-09-28T09:51:28.420Z,11.08
2018-09-28T09:52:33.063Z,11.17
2018-09-28T09:53:39.247Z,11.24
2018-09-28T09:54:43.988Z,11.36
2018-09-28T09:55:48.633Z,11.43
2018-09-28T09:56:55.027Z,11.50
2018-09-28T09:58:00.067Z,11.64
2018-09-28T09:59:04.683Z,11.74
2018-09-28T10:00:10.320Z,11.85
2018-09-28T10:01:20.029Z,12.00
2018-09-28T10:02:30.369Z,12.12
2018-09-28T10:03:40.221Z,12.20
2018-09-28T10:04:45.521Z,12.10
2018-09-28T10:05:50.291Z,12.08
2018-09-28T10:06:55.584Z,12.04
2018-09-28T10:08:01.063Z,12.07
2018-09-28T10:09:11.504Z,12.14
2018-09-28T10:10:16.037Z,12.24
2018-09-28T10:11:20.691Z,12.32
2018-09-28T10:12:25.344Z,12.40
2018-09-28T10:13:30.069Z,12.48
2018-09-28T10:14:35.071Z,12.58
2018-09-28T10:15:40.760Z,12.59
2018-09-28T10:16:48.308Z,12.57
2018-09-28T10:17:53.149Z,12.60
2018-09-28T10:19:00.301Z,12.56
2018-09-28T10:20:07.071Z,12.58
2018-09-28T10:21:11.905Z,12.63
2018-09-28T10:22:17.026Z,12.66
2018-09-28T10:23:22.258Z,12.55
2018-09-28T10:24:28.589Z,12.57
2018-09-28T10:25:34.738Z,12.61
2018-09-28T10:26:47.108Z,12.64
2018-09-28T10:27:51.744Z,12.60
2018-09-28T10:28:57.153Z,12.59
2018-09-28T10:30:02.241Z,12.58
2018-09-28T10:31:06.842Z,12.56
2018-09-28T10:45:04.965Z,13.09
2018-09-28T10:46:13.636Z,13.01
2018-09-28T10:47:18.463Z,13.00
2018-09-28T10:48:23.823Z,13.01
2018-09-28T10:49:28.355Z,12.97
2018-09-28T10:50:36.336Z,13.02
2018-09-28T10:51:41.634Z,13.03
2018-09-28T10:52:53.258Z,12.92
2018-09-28T10:54:00.839Z,12.83
2018-09-28T10:55:09.648Z,12.77
2018-09-28T10:56:19.010Z,12.80
2018-09-28T10:57:25.559Z,12.82
2018-09-28T10:58:34.269Z,12.86
2018-09-28T10:59:41.242Z,12.81
2018-09-28T11:00:48.425Z,12.82
2018-09-28T11:01:54.644Z,12.80
2018-09-28T11:03:02.272Z,12.78
2018-09-28T11:04:10.641Z,12.74
2018-09-28T11:05:18.474Z,12.70
2018-09-28T11:06:23.598Z,12.71
2018-09-28T11:09:58.575Z,12.64
2018-09-28T11:11:03.516Z,12.65
2018-09-28T11:12:09.676Z,12.60
2018-09-28T11:13:17.207Z,12.58
2018-09-28T11:15:36.002Z,12.62
2018-09-28T11:16:47.123Z,12.62
2018-09-28T11:17:52.968Z,12.56
2018-09-28T11:19:01.283Z,12.54
2018-09-28T11:20:10.072Z,12.53
2018-09-28T11:21:17.346Z,12.44
2018-09-28T11:22:24.125Z,12.44
2018-09-28T11:23:30.031Z,12.49
2018-09-28T11:24:36.789Z,12.46
2018-09-28T11:25:43.313Z,12.40
2018-09-28T11:26:48.819Z,12.38
2018-09-28T11:27:53.680Z,12.29
2018-09-28T11:29:00.410Z,12.22
2018-09-28T11:30:07.293Z,12.34
2018-09-28T11:31:13.520Z,12.38
2018-09-28T11:32:18.127Z,12.42
2018-09-28T11:33:23.816Z,12.45
2018-09-28T11:34:30.674Z,12.47
2018-09-28T11:35:36.093Z,12.50
2018-09-28T11:36:40.589Z,12.42
2018-09-28T11:37:45.845Z,12.46
2018-09-28T11:38:50.387Z,12.48
2018-09-28T11:39:55.393Z,12.51
2018-09-28T11:41:00.659Z,12.65
2018-09-28T11:42:11.218Z,12.71
2018-09-28T11:43:16.777Z,12.76
2018-09-28T11:44:23.200Z,12.80
2018-09-28T11:45:28.501Z,12.79
2018-09-28T11:46:33.131Z,12.72
2018-09-28T11:47:38.020Z,12.67
2018-09-28T11:48:43.002Z,12.59
2018-09-28T11:49:47.921Z,12.50
2018-09-28T11:50:52.361Z,12.45
2018-09-28T11:52:00.082Z,12.45
2018-09-28T11:53:05.440Z,12.43
2018-09-28T11:54:12.247Z,12.46
2018-09-28T11:55:16.714Z,12.44
2018-09-28T11:56:21.511Z,12.44
2018-09-28T11:57:26.220Z,12.41
2018-09-28T11:58:31.215Z,12.43
2018-09-28T11:59:35.664Z,12.34
2018-09-28T12:00:40.471Z,12.27
2018-09-28T12:01:47.048Z,12.24
2018-09-28T12:02:58.435Z,12.24
2018-09-28T12:04:04.406Z,12.25
2018-09-28T12:05:12.825Z,12.26
2018-09-28T12:06:19.552Z,12.29
2018-09-28T12:07:25.586Z,12.21
2018-09-28T12:08:30.283Z,12.18
2018-09-28T12:09:34.846Z,12.18
2018-09-28T12:10:40.837Z,12.18
2018-09-28T12:11:50.669Z,12.13
2018-09-28T12:12:56.266Z,12.04
2018-09-28T12:14:02.217Z,12.11
2018-09-28T12:15:07.266Z,12.14
2018-09-28T12:16:13.054Z,12.20
2018-09-28T12:17:17.893Z,12.17
2018-09-28T12:18:23.109Z,12.20
2018-09-28T12:19:28.396Z,12.22
2018-09-28T12:20:33.131Z,12.20
2018-09-28T12:21:38.686Z,12.24
2018-09-28T12:22:45.010Z,12.25
2018-09-28T12:23:49.833Z,12.24
2018-09-28T12:24:57.373Z,12.29
2018-09-28T12:26:04.537Z,12.37
2018-09-28T12:27:09.495Z,12.48
2018-09-28T12:28:14.023Z,12.55
2018-09-28T12:29:18.586Z,12.52
2018-09-28T12:30:23.064Z,12.49
2018-09-28T12:31:27.751Z,12.47
2018-09-28T12:32:33.054Z,12.46
2018-09-28T12:33:37.620Z,12.37
2018-09-28T12:34:42.433Z,12.38
2018-09-28T12:35:47.498Z,12.36
2018-09-28T12:36:52.336Z,12.30
2018-09-28T12:37:57.947Z,12.23
2018-09-28T12:39:03.992Z,12.24
2018-09-28T12:40:09.414Z,12.25
2018-09-28T12:41:14.330Z,12.25
2018-09-28T12:42:20.588Z,12.30
2018-09-28T12:43:26.903Z,12.31
2018-09-28T12:44:32.145Z,12.29
2018-09-28T12:45:38.904Z,12.32
2018-09-28T12:46:43.455Z,12.34
2018-09-28T12:47:47.906Z,12.32
2018-09-28T12:48:54.077Z,12.26
2018-09-28T12:49:59.261Z,12.28
2018-09-28T12:51:03.816Z,12.23
2018-09-28T12:52:09.248Z,12.22
2018-09-28T12:53:13.845Z,12.19
2018-09-28T12:54:18.399Z,12.12
2018-09-28T12:55:23.301Z,12.13
2018-09-28T12:56:28.023Z,12.17
2018-09-28T12:57:33.610Z,12.24
2018-09-28T12:58:39.634Z,12.20
2018-09-28T12:59:44.713Z,12.15
2018-09-28T13:00:49.361Z,12.20
2018-09-28T13:01:54.890Z,12.16
2018-09-28T13:02:59.344Z,12.12
2018-09-28T13:04:03.937Z,12.12
2018-09-28T13:05:11.262Z,12.10
2018-09-28T13:06:16.483Z,12.08
2018-09-28T13:07:21.359Z,12.18
2018-09-28T13:08:26.161Z,12.23
2018-09-28T13:09:30.713Z,12.21
2018-09-28T13:10:36.112Z,12.16
2018-09-28T13:11:42.114Z,12.22
2018-09-28T13:12:47.196Z,12.24
2018-09-28T13:13:51.743Z,12.19
2018-09-28T13:14:58.089Z,12.17
2018-09-28T13:16:02.960Z,12.17
2018-09-28T13:17:08.395Z,12.18
2018-09-28T13:18:13.351Z,12.20
2018-09-28T13:19:17.890Z,12.20
2018-09-28T13:20:22.436Z,12.16
2018-09-28T13:21:27.358Z,12.13
2018-09-28T13:22:32.920Z,12.11
2018-09-28T13:23:38.773Z,12.02
2018-09-28T13:24:44.227Z,12.06
2018-09-28T13:25:49.594Z,12.10
2018-09-28T13:26:54.093Z,12.10
2018-09-28T13:28:00.273Z,12.05
2018-09-28T13:29:05.190Z,12.10
2018-09-28T13:30:09.762Z,12.18
2018-09-28T13:31:18.116Z,12.16
2018-09-28T13:32:22.693Z,12.07
2018-09-28T13:33:28.067Z,12.13
2018-09-28T13:34:32.555Z,12.11
2018-09-28T13:35:39.302Z,12.08
2018-09-28T13:36:50.681Z,12.00
2018-09-28T13:37:56.736Z,11.93
2018-09-28T13:39:01.508Z,12.03
2018-09-28T13:40:06.358Z,12.13
2018-09-28T13:41:11.792Z,12.17
2018-09-28T13:42:17.735Z,12.28
2018-09-28T13:43:22.906Z,12.38
2018-09-28T13:44:28.660Z,12.41
2018-09-28T13:45:34.346Z,12.32
2018-09-28T13:47:42.294Z,12.36
2018-09-28T13:48:47.927Z,12.28
2018-09-28T13:49:52.849Z,12.33
2018-09-28T13:50:58.766Z,12.40
2018-09-28T13:52:04.515Z,12.39
2018-09-28T13:53:09.038Z,12.35
2018-09-28T13:54:14.596Z,12.47
2018-09-28T13:55:20.004Z,12.51
2018-09-28T13:56:25.563Z,12.56
2018-09-28T13:57:31.015Z,12.52
2018-09-28T13:58:36.429Z,12.53
2018-09-28T13:59:41.817Z,12.43
2018-09-28T14:00:55.170Z,12.39
2018-09-28T14:02:00.230Z,12.32
2018-09-28T14:03:09.254Z,12.29
2018-09-28T14:04:17.465Z,12.19
2018-09-28T14:05:24.223Z,11.97
2018-09-28T14:06:31.599Z,11.95
2018-09-28T14:07:38.103Z,11.97
2018-09-28T14:08:46.629Z,12.10
2018-09-28T14:09:54.018Z,12.22
2018-09-28T14:11:02.269Z,12.30
2018-09-28T14:12:07.875Z,12.31
2018-09-28T14:13:13.354Z,12.34
2018-09-28T14:14:23.649Z,12.44
2018-09-28T14:15:29.211Z,12.43
2018-09-28T14:16:36.307Z,12.49
2018-09-28T14:17:42.654Z,12.55
2018-09-28T14:18:47.341Z,12.64
2018-09-28T14:19:51.880Z,12.76
2018-09-28T14:20:56.426Z,12.83
2018-09-28T14:22:01.311Z,12.97
2018-09-28T14:23:05.832Z,13.07
2018-09-28T14:24:10.702Z,13.14
2018-09-28T14:25:15.249Z,13.12
2018-09-28T14:26:20.417Z,13.02
2018-09-28T14:27:25.033Z,12.98
2018-09-28T14:28:30.008Z,13.04
2018-09-28T14:29:34.480Z,13.28
2018-09-28T14:30:38.992Z,13.52
2018-09-28T14:31:43.882Z,13.62
2018-09-28T14:32:48.406Z,13.64
2018-09-28T14:33:53.154Z,13.69
2018-09-28T14:34:58.117Z,13.74
2018-09-28T14:36:04.803Z,13.91
2018-09-28T14:37:22.250Z,14.41
2018-09-28T14:38:27.772Z,14.73
2018-09-28T14:39:32.252Z,14.80
2018-09-28T14:40:37.959Z,14.88
2018-09-28T14:41:42.949Z,15.18
2018-09-28T14:42:48.069Z,15.23
2018-09-28T14:43:53.065Z,15.10
2018-09-28T14:44:57.555Z,15.41
2018-09-28T14:46:02.967Z,15.55
2018-09-28T14:47:07.855Z,15.33
2018-09-28T14:48:12.973Z,15.48
2018-09-28T14:49:18.364Z,16.04
2018-09-28T14:50:24.019Z,16.22
2018-09-28T14:51:28.482Z,16.01
2018-09-28T14:52:33.010Z,15.31
2018-09-28T14:53:38.031Z,14.90
2018-09-28T14:54:42.547Z,14.78
2018-09-28T14:55:47.038Z,14.72